Time;durP1;ratioP1;P1;durP2;ratioP2;P2;SDS_P1;SDS_P2;PMS_P1;PMS_P2;Temp;Humidity;BMP_temperature;BMP_pressure;BME280_temperature;BME280_humidity;BME280_pressure;Samples;Min_cycle;Max_cycle;Signal;HPM_P1;HPM_P2
2022/04/14 00:01:34;;;;;;;3.27;2.23;;;7.30;1.40;;;8.35;100.00;95291.24;621010;222;32059;-74
2022/04/14 00:04:16;;;;;;;2.80;1.77;;;7.20;1.40;;;8.25;100.00;95294.02;648920;215;31605;-74
2022/04/14 00:06:57;;;;;;;2.83;2.20;;;7.10;1.40;;;8.24;100.00;95290.37;644184;212;31700;-74
2022/04/14 00:09:40;;;;;;;2.30;2.10;;;7.10;1.40;;;8.20;100.00;95294.30;649274;212;32246;-73
2022/04/14 00:12:24;;;;;;;2.70;1.87;;;7.00;1.40;;;8.17;100.00;95297.14;645793;216;31604;-75
2022/04/14 00:15:06;;;;;;;3.10;2.80;;;7.00;1.40;;;8.20;100.00;95301.11;647768;212;31606;-75
2022/04/14 00:17:48;;;;;;;2.87;1.73;;;7.10;1.40;;;8.26;100.00;95301.52;647350;216;31555;-74
2022/04/14 00:20:34;;;;;;;2.10;1.60;;;7.30;1.40;;;8.27;100.00;95302.52;648703;212;31561;-74
2022/04/14 00:23:15;;;;;;;1.80;1.70;;;7.30;1.40;;;8.24;100.00;95302.83;646117;216;31569;-74
2022/04/14 00:25:57;;;;;;;2.28;1.80;;;7.20;1.40;;;8.22;100.00;95305.02;648123;212;31618;-74
2022/04/14 00:28:39;;;;;;;2.80;1.80;;;7.10;1.40;;;8.22;100.00;95303.14;648737;216;31562;-74
2022/04/14 00:31:23;;;;;;;2.53;2.35;;;7.20;1.40;;;8.15;100.00;95300.78;646718;216;42627;-73
2022/04/14 00:35:52;;;;;;;2.05;1.73;;;7.10;1.40;;;8.14;100.00;95295.02;647027;216;31552;-75
2022/04/14 00:38:33;;;;;;;1.97;1.70;;;7.10;1.40;;;8.05;100.00;95295.05;646774;216;31566;-75
2022/04/14 00:41:18;;;;;;;2.80;2.40;;;6.90;1.40;;;8.05;100.00;95299.58;619272;226;31899;-74
2022/04/14 00:44:00;;;;;;;3.20;2.50;;;6.90;1.40;;;8.14;100.00;95297.23;622654;226;32597;-73
2022/04/14 00:46:44;;;;;;;2.97;2.70;;;7.00;1.40;;;8.12;100.00;95296.89;646879;212;31621;-74
2022/04/14 00:49:27;;;;;;;2.42;1.40;;;7.00;1.40;;;8.17;100.00;95298.76;646646;212;31533;-74
2022/04/14 00:52:11;;;;;;;3.00;1.97;;;7.10;1.40;;;8.10;100.00;95300.55;618296;226;32121;-74
2022/04/14 00:54:53;;;;;;;4.32;2.40;;;7.00;1.40;;;8.13;100.00;95302.12;621002;222;32040;-74
2022/04/14 00:57:35;;;;;;;2.00;1.90;;;7.10;1.40;;;8.21;100.00;95301.97;648185;212;31575;-74
2022/04/14 01:00:17;;;;;;;2.93;2.57;;;7.20;1.40;;;8.41;100.00;95303.00;648724;212;32302;-75
2022/04/14 01:02:58;;;;;;;3.93;2.10;;;7.50;1.40;;;8.49;100.00;95305.64;650338;213;31537;-74
2022/04/14 01:05:40;;;;;;;1.55;1.45;;;7.60;1.40;;;8.59;100.00;95296.69;619995;226;32548;-74
2022/04/14 01:08:25;;;;;;;3.40;2.20;;;7.70;1.40;;;8.71;100.00;95297.58;646566;212;31609;-75
2022/04/14 01:11:06;;;;;;;2.77;2.57;;;7.80;1.40;;;8.73;100.00;95298.08;620224;226;32033;-74
2022/04/14 01:16:22;;;;;;;3.65;2.30;;;7.90;1.40;;;8.86;100.00;95306.69;637267;221;31723;-74
2022/04/14 01:19:04;;;;;;;4.13;3.73;;;8.00;1.40;;;8.91;100.00;95301.52;648550;216;31579;-73
2022/04/14 01:24:40;;;;;;;5.97;3.87;;;8.10;1.40;;;8.98;100.00;95304.29;646943;216;31562;-73
2022/04/14 01:27:21;;;;;;;5.77;4.20;;;8.10;1.40;;;9.03;100.00;95304.05;651427;212;31682;-74
2022/04/14 01:30:03;;;;;;;2.77;2.40;;;8.10;1.40;;;9.00;100.00;95309.50;647176;216;31909;-74
2022/04/14 01:32:45;;;;;;;2.87;2.67;;;8.00;1.40;;;8.97;100.00;95311.13;646848;212;31547;-74
2022/04/14 01:35:51;;;;;;;5.35;3.20;;;7.90;1.40;;;8.88;100.00;95312.39;648879;212;31574;-74
2022/04/14 01:38:32;;;;;;;3.77;2.83;;;7.80;1.40;;;8.66;100.00;95309.44;647422;212;31513;-74
2022/04/14 01:41:17;;;;;;;2.45;2.25;;;7.50;1.40;;;8.59;100.00;95311.98;648889;213;32092;-74
2022/04/14 01:44:02;;;;;;;2.77;2.50;;;7.40;1.40;;;8.65;100.00;95314.44;647337;212;31598;-74
2022/04/14 01:46:44;;;;;;;3.50;2.50;;;7.40;1.40;;;8.53;100.00;95312.77;647686;213;31586;-74
2022/04/14 01:49:26;;;;;;;4.62;2.17;;;7.30;1.40;;;8.48;100.00;95312.67;648725;216;31561;-74
2022/04/14 01:52:07;;;;;;;4.10;2.97;;;7.30;1.40;;;8.44;100.00;95319.44;618744;226;31938;-74
2022/04/14 01:54:49;;;;;;;3.62;3.33;;;7.30;1.40;;;8.52;100.00;95319.05;643346;216;31713;-75
2022/04/14 01:57:31;;;;;;;5.68;4.80;;;7.50;1.40;;;8.61;100.00;95316.44;618952;226;31944;-75
2022/04/14 02:00:14;;;;;;;4.47;4.17;;;7.60;1.40;;;8.60;100.00;95319.21;646267;212;31559;-74
2022/04/14 02:02:54;;;;;;;4.63;3.83;;;7.60;1.40;;;8.57;100.00;95323.59;647748;212;31864;-76
2022/04/14 02:05:36;;;;;;;5.53;4.50;;;7.50;1.40;;;8.55;100.00;95319.38;620225;226;31922;-74
2022/04/14 02:08:18;;;;;;;4.80;3.70;;;7.50;1.40;;;8.52;100.00;95326.45;649206;212;31576;-74
2022/04/14 02:11:03;;;;;;;3.63;2.70;;;7.50;1.40;;;8.48;100.00;95326.46;646669;212;31549;-74
2022/04/14 02:13:45;;;;;;;2.50;2.30;;;7.40;1.40;;;8.39;100.00;95326.28;645182;212;32080;-74
2022/04/14 02:16:27;;;;;;;3.10;2.20;;;7.30;1.40;;;8.49;100.00;95323.58;648321;212;31585;-74
2022/04/14 02:19:09;;;;;;;2.30;2.10;;;7.50;1.40;;;8.51;100.00;95319.00;647210;212;31638;-73
2022/04/14 02:21:58;;;;;;;2.15;1.75;;;7.50;1.40;;;8.38;100.00;95321.16;648782;212;31713;-74
2022/04/14 02:24:36;;;;;;;2.50;2.30;;;7.20;1.40;;;8.31;100.00;95317.48;646526;216;31751;-73
2022/04/14 02:27:22;;;;;;;3.50;2.53;;;7.00;1.40;;;8.23;100.00;95317.77;649158;216;32092;-75
2022/04/14 02:30:10;;;;;;;2.87;2.13;;;7.00;1.40;;;8.13;100.00;95325.01;631121;221;31682;-75
2022/04/14 02:32:52;;;;;;;2.60;2.40;;;6.90;1.40;;;8.05;100.00;95327.23;647117;212;31564;-73
2022/04/14 02:35:55;;;;;;;6.95;3.22;;;6.80;1.40;;;8.28;100.00;95317.20;645781;216;31937;-73
2022/04/14 02:38:37;;;;;;;3.30;2.78;;;7.30;1.40;;;8.12;100.00;95320.70;649092;216;31590;-74
2022/04/14 02:41:18;;;;;;;2.90;2.60;;;7.00;1.40;;;8.02;100.00;95324.41;646471;216;31556;-74
2022/04/14 02:44:00;;;;;;;3.93;2.40;;;6.80;1.40;;;7.99;100.00;95320.54;643788;215;32335;-74
2022/04/14 02:46:42;;;;;;;3.00;2.67;;;6.70;1.40;;;7.95;100.00;95322.27;645777;212;32160;-74
2022/04/14 02:49:24;;;;;;;2.10;1.70;;;6.70;1.40;;;7.92;100.00;95327.70;645869;216;32198;-74
2022/04/14 02:52:07;;;;;;;3.12;2.55;;;6.60;1.40;;;7.87;100.00;95336.79;645986;212;42202;-74
2022/04/14 02:54:48;;;;;;;3.03;2.73;;;6.50;1.40;;;7.73;100.00;95336.02;648938;212;31643;-75
2022/04/14 03:00:05;;;;;;;2.70;2.50;;;6.10;1.40;;;7.38;100.00;95336.22;618873;226;32284;-74
2022/04/14 03:02:47;;;;;;;1.97;1.50;;;6.00;1.40;;;7.33;100.00;95335.31;650554;216;32139;-73
2022/04/14 03:08:03;;;;;;;2.30;1.60;;;5.90;1.40;;;7.19;100.00;95341.42;646816;212;31534;-76
2022/04/14 03:10:45;;;;;;;2.35;2.12;;;5.80;1.40;;;7.13;100.00;95340.41;646542;216;35767;-73
2022/04/14 03:13:27;;;;;;;1.80;1.70;;;5.80;1.40;;;7.10;100.00;95339.78;645846;212;31680;-74
2022/04/14 03:16:13;;;;;;;3.87;1.95;;;5.70;1.40;;;7.05;100.00;95347.25;645955;212;31608;-73
2022/04/14 03:18:53;;;;;;;3.40;2.60;;;5.70;1.40;;;6.98;100.00;95352.55;648669;216;31752;-75
2022/04/14 03:21:38;;;;;;;2.97;2.53;;;5.50;1.40;;;6.91;100.00;95353.73;618832;226;31935;-74
2022/04/14 03:24:20;;;;;;;3.40;3.10;;;5.40;1.40;;;6.81;100.00;95359.63;648860;216;31636;-74
2022/04/14 03:27:02;;;;;;;1.40;1.30;;;5.40;1.40;;;6.67;100.00;95350.61;631984;222;31913;-75
2022/04/14 03:29:45;;;;;;;3.30;1.87;;;5.30;1.40;;;6.67;100.00;95346.56;647327;212;31650;-74
2022/04/14 03:32:25;;;;;;;3.43;2.90;;;5.30;1.40;;;6.83;100.00;95350.02;649059;216;31696;-75
2022/04/14 03:35:55;;;;;;;3.17;2.33;;;5.80;1.40;;;6.86;100.00;95344.38;650494;212;31668;-75
2022/04/14 03:38:37;;;;;;;2.35;2.15;;;5.70;1.40;;;6.78;100.00;95350.98;645691;216;31548;-74
2022/04/14 03:41:22;;;;;;;3.90;2.45;;;5.60;1.40;;;6.75;100.00;95353.38;622964;222;42478;-75
2022/04/14 03:44:03;;;;;;;2.87;2.20;;;5.50;1.40;;;6.68;100.00;95354.38;647886;216;31720;-74
2022/04/14 03:46:45;;;;;;;4.30;3.20;;;5.40;1.40;;;6.69;100.00;95358.63;647407;216;31544;-74
2022/04/14 03:52:02;;;;;;;1.75;1.65;;;5.90;1.40;;;6.87;100.00;95360.87;648408;216;31743;-74
2022/04/14 03:54:45;;;;;;;3.45;2.85;;;5.80;1.40;;;6.82;100.00;95362.80;648499;216;31426;-75
2022/04/14 03:57:27;;;;;;;3.58;2.20;;;5.70;1.40;;;6.79;100.00;95366.80;646802;212;31566;-75
2022/04/14 04:00:10;;;;;;;3.53;2.67;;;5.70;1.40;;;6.91;100.00;95365.77;647234;216;31606;-75
2022/04/14 04:02:52;;;;;;;1.90;1.80;;;5.80;1.40;;;6.86;100.00;95368.15;647775;212;42182;-76
2022/04/14 04:05:34;;;;;;;3.30;2.80;;;5.70;1.40;;;6.84;100.00;95370.11;653137;216;31573;-75
2022/04/14 04:08:18;;;;;;;2.60;1.90;;;5.60;1.40;;;6.75;100.00;95373.90;648696;216;31584;-75
2022/04/14 04:10:58;;;;;;;3.25;2.25;;;5.50;1.40;;;6.70;100.00;95370.77;646449;212;31911;-75
2022/04/14 04:13:41;;;;;;;3.40;3.20;;;5.50;1.40;;;6.69;100.00;95375.75;649511;216;31670;-74
2022/04/14 04:16:25;;;;;;;3.72;3.33;;;5.40;1.40;;;6.68;100.00;95379.86;648056;212;31626;-74
2022/04/14 04:19:07;;;;;;;2.33;1.40;;;5.30;1.40;;;6.60;100.00;95381.43;647182;216;31552;-74
2022/04/14 04:21:49;;;;;;;10.60;2.78;;;5.20;1.40;;;6.47;100.00;95382.63;646610;212;31729;-74
2022/04/14 04:24:31;;;;;;;3.10;2.57;;;5.10;1.40;;;6.32;100.00;95389.27;648549;216;42305;-74
2022/04/14 04:27:13;;;;;;;2.33;1.50;;;4.90;1.40;;;6.32;100.00;95388.81;646905;212;31655;-75
2022/04/14 04:29:55;;;;;;;3.75;1.67;;;4.90;1.40;;;6.31;100.00;95389.77;648700;216;32174;-74
2022/04/14 04:32:39;;;;;;;2.10;1.80;;;4.90;1.40;;;6.24;100.00;95396.75;648943;216;31538;-75
2022/04/14 04:35:51;;;;;;;3.15;1.87;;;4.90;1.40;;;6.14;100.00;95397.34;648066;216;31758;-75
2022/04/14 04:38:32;;;;;;;6.35;3.10;;;4.80;1.40;;;6.06;100.00;95398.76;620036;226;42698;-73
2022/04/14 04:41:14;;;;;;;2.47;2.15;;;4.70;1.40;;;6.06;100.00;95399.67;648589;216;43333;-74
2022/04/14 04:43:59;;;;;;;2.65;1.62;;;4.80;1.40;;;6.19;100.00;95397.91;647870;216;42778;-74
2022/04/14 04:46:40;;;;;;;2.62;1.98;;;4.80;1.40;;;6.18;100.00;95400.77;646250;212;31682;-74
2022/04/14 04:49:22;;;;;;;4.10;2.67;;;4.80;1.40;;;6.22;100.00;95401.06;647470;212;42355;-73
2022/04/14 04:52:05;;;;;;;2.40;2.10;;;4.90;1.40;;;6.28;100.00;95407.55;648367;216;31531;-73
2022/04/14 04:54:48;;;;;;;2.72;1.85;;;5.00;1.40;;;6.45;100.00;95409.62;649531;212;42176;-75
2022/04/14 04:57:29;;;;;;;2.97;1.83;;;5.00;1.40;;;6.37;100.00;95406.12;646401;216;31855;-73
2022/04/14 05:00:11;;;;;;;1.98;1.73;;;5.00;1.40;;;6.38;100.00;95406.76;647850;212;42206;-73
2022/04/14 05:02:56;;;;;;;4.95;1.80;;;5.10;1.40;;;6.43;100.00;95402.84;647132;216;43454;-74
2022/04/14 05:05:38;;;;;;;4.25;1.60;;;5.10;1.40;;;6.54;100.00;95410.13;646485;216;42201;-74
2022/04/14 05:08:20;;;;;;;3.17;2.00;;;5.10;1.40;;;6.57;100.00;95412.85;636138;212;42344;-75
2022/04/14 05:11:07;;;;;;;3.00;2.20;;;5.20;1.40;;;6.68;100.00;95415.41;647507;212;31505;-76
2022/04/14 05:13:51;;;;;;;3.17;2.97;;;5.20;1.40;;;6.75;100.00;95418.73;648974;212;31576;-75
2022/04/14 05:16:33;;;;;;;5.50;2.22;;;5.40;1.40;;;6.83;100.00;95417.70;649324;212;31534;-75
2022/04/14 05:19:15;;;;;;;2.50;2.30;;;5.50;1.40;;;7.06;100.00;95416.73;646090;216;42382;-75
2022/04/14 05:21:57;;;;;;;3.00;2.60;;;5.90;1.40;;;7.28;100.00;95415.13;644931;212;42196;-74
2022/04/14 05:24:38;;;;;;;1.77;1.67;;;6.20;1.40;;;7.53;100.00;95418.14;649684;216;42166;-73
2022/04/14 05:27:20;;;;;;;2.85;2.20;;;6.60;1.40;;;7.70;100.00;95415.98;649923;216;31615;-74
2022/04/14 05:30:02;;;;;;;2.25;2.05;;;6.70;1.40;;;7.91;100.00;95416.84;646940;212;31684;-75
2022/04/14 05:32:44;;;;;;;5.12;3.95;;;6.90;1.40;;;8.09;100.00;95419.13;647416;216;42757;-74
2022/04/14 05:35:52;;;;;;;3.85;2.80;;;7.10;1.40;;;8.32;100.00;95414.96;652003;216;31646;-74
2022/04/14 05:38:34;;;;;;;2.70;2.50;;;7.40;1.40;;;8.56;100.00;95416.77;647345;216;34142;-74
2022/04/14 05:41:16;;;;;;;5.20;2.80;;;7.70;1.40;;;8.85;100.00;95421.23;641595;215;31567;-75
2022/04/14 05:43:58;;;;;;;2.20;1.98;;;8.00;1.40;;;9.24;100.00;95422.37;622224;225;31901;-74
2022/04/14 05:46:44;;;;;;;2.30;2.00;;;8.60;1.40;;;9.59;100.00;95425.06;647302;212;31640;-74
2022/04/14 05:49:26;;;;;;;3.40;2.10;;;9.00;1.40;;;9.90;100.00;95423.81;646801;216;31568;-75
2022/04/14 05:52:08;;;;;;;5.93;3.33;;;9.20;1.40;;;10.11;100.00;95424.50;649862;216;31595;-75
2022/04/14 05:54:50;;;;;;;3.85;3.30;;;9.30;1.40;;;10.28;100.00;95428.17;620754;222;31941;-75
2022/04/14 05:57:32;;;;;;;4.63;2.80;;;9.40;1.40;;;10.43;100.00;95432.10;646194;212;31562;-73
2022/04/14 06:00:15;;;;;;;3.53;3.17;;;9.40;1.40;;;10.55;100.00;95432.48;649612;212;31539;-75
2022/04/14 06:03:00;;;;;;;3.33;2.40;;;9.60;1.40;;;10.79;100.00;95432.27;634833;221;32320;-74
2022/04/14 06:05:41;;;;;;;2.53;2.22;;;9.90;1.40;;;11.23;100.00;95431.92;645744;216;31610;-74
2022/04/14 06:08:24;;;;;;;5.50;3.50;;;10.50;1.40;;;11.56;100.00;95433.50;636409;216;31724;-75
2022/04/14 06:11:16;;;;;;;3.70;3.40;;;10.80;1.40;;;11.85;100.00;95432.09;648544;212;31512;-74
2022/04/14 06:13:49;;;;;;;3.00;2.80;;;11.10;1.40;;;12.35;100.00;95434.07;643225;220;24597;-75
2022/04/14 06:16:31;;;;;;;3.20;2.10;;;11.90;1.40;;;12.65;100.00;95439.70;647319;216;31521;-76
2022/04/14 06:19:19;;;;;;;2.93;2.63;;;11.90;1.40;;;12.74;100.00;95446.52;649873;216;32036;-77
2022/04/14 06:22:02;;;;;;;3.20;2.90;;;11.70;1.40;;;12.72;100.00;95450.22;619396;226;32110;-77
2022/04/14 06:24:45;;;;;;;2.93;2.63;;;11.80;1.40;;;12.78;100.00;95450.44;647915;212;31571;-76
2022/04/14 06:27:28;;;;;;;4.97;2.58;;;11.90;1.40;;;12.92;100.00;95458.51;622329;222;31857;-77
2022/04/14 06:30:13;;;;;;;3.50;2.63;;;12.10;1.40;;;13.06;100.00;95456.92;620597;226;32227;-74
2022/04/14 06:35:59;;;;;;;2.87;2.40;;;12.30;1.40;;;13.29;100.00;95458.55;646461;216;31622;-79
2022/04/14 06:38:46;;;;;;;2.57;2.10;;;12.40;1.40;;;13.37;100.00;95464.52;645596;213;31569;-77
2022/04/14 06:41:28;;;;;;;3.30;3.00;;;12.50;1.40;;;13.48;100.00;95465.72;644173;214;31648;-77
2022/04/14 06:44:12;;;;;;;2.62;2.42;;;12.70;1.40;;;13.68;100.00;95461.28;647314;212;31923;-78
2022/04/14 06:46:56;;;;;;;2.40;2.20;;;12.80;1.40;;;13.79;100.00;95465.61;649788;212;31611;-77
2022/04/14 06:49:42;;;;;;;3.30;3.00;;;12.90;1.40;;;13.85;100.00;95466.06;649807;216;34089;-76
2022/04/14 06:52:25;;;;;;;3.40;2.87;;;13.00;1.40;;;14.05;100.00;95462.66;647732;212;31563;-77
2022/04/14 06:55:10;;;;;;;3.00;2.60;;;13.20;1.40;;;14.16;100.00;95464.48;645409;216;31569;-77
2022/04/14 06:57:53;;;;;;;2.80;2.40;;;13.30;1.40;;;14.30;100.00;95463.01;648832;212;31527;-76
2022/04/14 07:00:34;;;;;;;3.73;2.93;;;13.40;1.40;;;14.45;100.00;95464.64;644876;212;31749;-77
2022/04/14 07:03:16;;;;;;;3.05;2.53;;;13.50;1.40;;;14.52;100.00;95465.81;620437;222;32217;-78
2022/04/14 07:06:00;;;;;;;2.67;2.30;;;13.50;1.40;;;14.50;100.00;95467.95;618957;226;32309;-77
2022/04/14 07:08:39;;;;;;;4.62;2.28;;;13.60;1.40;;;14.60;100.00;95466.95;637820;216;33499;-76
2022/04/14 07:11:21;;;;;;;2.80;2.60;;;13.70;1.40;;;14.68;100.00;95466.44;647841;212;42190;-77
2022/04/14 07:14:03;;;;;;;4.70;2.83;;;13.80;1.40;;;14.86;100.00;95471.30;648237;216;31753;-77
2022/04/14 07:16:45;;;;;;;2.72;2.25;;;14.00;1.40;;;14.98;100.00;95467.37;619457;225;41571;-78
2022/04/14 07:19:26;;;;;;;3.78;2.70;;;14.10;1.40;;;15.10;100.00;95471.11;647548;216;31669;-77
2022/04/14 07:22:08;;;;;;;4.78;2.97;;;14.20;1.40;;;15.13;100.00;95471.76;619234;222;42523;-77
2022/04/14 07:24:50;;;;;;;2.47;2.28;;;14.30;1.40;;;15.18;100.00;95469.66;648228;216;31540;-77
2022/04/14 07:27:32;;;;;;;3.37;2.70;;;14.40;1.40;;;15.34;100.00;95473.97;648288;212;42312;-78
2022/04/14 07:30:14;;;;;;;6.28;3.25;;;14.50;1.40;;;15.38;100.00;95473.32;619014;222;42629;-77
2022/04/14 07:35:52;;;;;;;3.67;3.28;;;14.80;1.40;;;15.72;100.00;95476.92;649909;212;31605;-78
2022/04/14 07:38:38;;;;;;;3.65;3.35;;;14.80;1.40;;;15.77;100.00;95475.79;619106;226;31973;-77
2022/04/14 07:41:24;;;;;;;4.43;3.15;;;14.80;1.40;;;15.89;100.00;95476.78;618925;223;31872;-77
2022/04/14 07:44:05;;;;;;;4.37;3.42;;;15.00;1.40;;;16.00;100.00;95475.87;647155;212;31645;-77
2022/04/14 07:46:47;;;;;;;3.87;3.20;;;15.10;1.40;;;16.18;100.00;95478.23;646786;213;31580;-76
2022/04/14 07:49:32;;;;;;;4.25;3.70;;;15.30;1.40;;;16.15;100.00;95484.69;620689;226;32031;-77
2022/04/14 07:52:13;;;;;;;4.22;2.87;;;15.20;1.40;;;16.25;100.00;95487.85;646265;216;32160;-77
2022/04/14 07:54:56;;;;;;;6.50;3.25;;;15.30;1.40;;;16.32;100.00;95488.02;647421;212;31548;-77
2022/04/14 07:57:41;;;;;;;6.50;3.40;;;15.40;1.40;;;16.57;100.00;95488.39;646397;216;31554;-77
2022/04/14 08:00:24;;;;;;;6.90;3.10;;;15.70;1.40;;;16.55;100.00;95491.05;622275;222;32024;-78
2022/04/14 08:03:07;;;;;;;4.03;3.55;;;15.70;1.40;;;16.57;100.00;95489.05;620432;222;31949;-76
2022/04/14 08:05:49;;;;;;;4.80;3.35;;;15.60;1.40;;;16.68;100.00;95495.00;647017;212;31564;-76
2022/04/14 08:08:33;;;;;;;5.10;3.20;;;15.80;1.40;;;16.78;100.00;95493.97;634940;216;31708;-77
2022/04/14 08:11:16;;;;;;;4.90;3.40;;;16.00;1.40;;;17.07;100.00;95500.48;645487;212;31929;-77
2022/04/14 08:13:58;;;;;;;3.72;3.30;;;16.20;1.40;;;17.20;100.00;95498.62;649321;212;32165;-77
2022/04/14 08:16:40;;;;;;;4.65;3.10;;;16.30;1.40;;;17.59;100.00;95498.59;646429;216;31635;-76
2022/04/14 08:19:22;;;;;;;3.93;3.60;;;16.70;1.40;;;17.79;94.19;95499.40;618480;222;32052;-77
2022/04/14 08:22:04;;;;;;;5.05;3.62;;;16.80;1.40;;;17.80;94.49;95503.27;647345;216;31560;-79
2022/04/14 08:24:47;;;;;;;6.33;3.63;;;16.70;1.40;;;17.77;93.85;95506.17;649244;212;31581;-78
2022/04/14 08:27:28;;;;;;;3.37;2.87;;;16.80;1.40;;;18.11;95.11;95504.11;646158;212;31944;-76
2022/04/14 08:30:13;;;;;;;5.20;3.55;;;17.10;1.40;;;18.18;90.51;95502.81;619369;226;31904;-77
2022/04/14 08:33:01;;;;;;;4.00;3.60;;;17.10;1.40;;;18.45;88.74;95506.20;648142;216;31895;-78
2022/04/14 08:35:51;;;;;;;5.45;3.70;;;17.40;1.40;;;18.47;87.34;95505.09;618678;226;32127;-78
2022/04/14 08:38:35;;;;;;;4.10;3.40;;;17.50;1.40;;;18.50;85.72;95504.80;619073;226;32409;-78
2022/04/14 08:41:18;;;;;;;8.93;4.37;;;17.40;1.40;;;18.79;86.38;95504.84;617867;226;31927;-77
2022/04/14 08:44:01;;;;;;;6.75;3.85;;;17.80;1.40;;;19.22;82.16;95501.85;647423;212;31531;-78
2022/04/14 08:46:47;;;;;;;4.90;3.43;;;18.30;1.40;;;19.54;81.46;95503.87;653673;216;22547;-78
2022/04/14 08:49:35;;;;;;;4.62;3.50;;;18.60;1.40;;;20.13;83.53;95501.81;647072;212;31538;-76
2022/04/14 08:52:16;;;;;;;3.27;2.90;;;18.90;1.40;;;19.74;80.49;95501.37;619228;226;33015;-78
2022/04/14 08:54:58;;;;;;;4.40;3.87;;;18.50;1.40;;;19.62;78.94;95503.60;619877;222;32527;-78
2022/04/14 09:00:27;;;;;;;6.68;4.00;;;19.20;1.40;;;20.79;76.80;95497.70;649606;216;31578;-78
2022/04/14 09:03:11;;;;;;;4.68;3.30;;;19.60;1.40;;;22.50;67.52;95498.78;646493;216;31896;-79
2022/04/14 09:05:52;;;;;;;4.27;3.30;;;23.00;1.40;;;23.38;58.64;95503.75;646147;216;31989;-77
2022/04/14 09:08:34;;;;;;;6.57;3.55;;;24.80;1.40;;;25.14;57.35;95496.53;647617;216;31676;-77
2022/04/14 09:11:20;;;;;;;5.10;3.87;;;27.20;1.40;;;26.42;53.34;95499.88;646330;216;31570;-78
2022/04/14 09:14:03;;;;;;;7.10;3.90;;;27.90;1.40;;;26.35;47.55;95500.89;631223;222;31770;-77
2022/04/14 09:16:46;;;;;;;6.05;4.00;;;26.10;1.40;;;26.49;46.20;95502.37;619709;222;31913;-77
2022/04/14 09:19:27;;;;;;;7.65;4.00;;;25.40;1.40;;;26.24;48.30;95502.69;619251;222;31899;-77
2022/04/14 09:22:13;;;;;;;7.53;4.12;;;25.00;1.40;;;28.20;47.96;95496.02;647715;216;31658;-79
2022/04/14 09:25:01;;;;;;;6.82;4.25;;;27.20;1.40;;;28.72;46.03;95486.81;619705;222;31989;-79
2022/04/14 09:27:46;;;;;;;6.37;4.78;;;27.40;1.40;;;29.02;46.59;95488.58;620469;225;31941;-79
2022/04/14 09:30:29;;;;;;;6.70;5.00;;;28.30;1.40;;;29.48;41.74;95484.37;648237;212;32143;-77
2022/04/14 09:36:17;;;;;;;6.10;4.65;;;28.60;1.40;;;27.73;40.91;95487.36;640931;217;31696;-77
2022/04/14 09:39:06;;;;;;;5.43;4.03;;;26.90;1.40;;;29.31;37.76;95486.03;647112;216;31622;-77
2022/04/14 09:41:47;;;;;;;5.68;3.75;;;27.90;1.40;;;29.03;40.51;95481.50;616031;226;31886;-76
2022/04/14 09:47:03;;;;;;;5.80;3.60;;;27.40;1.40;;;29.70;37.69;95483.69;620082;222;32341;-78
2022/04/14 09:49:45;;;;;;;6.03;3.92;;;27.60;1.40;;;30.53;38.41;95486.83;646975;216;31760;-76
2022/04/14 09:52:30;;;;;;;5.82;4.03;;;28.90;1.40;;;30.95;36.37;95480.01;647252;212;31585;-79
2022/04/14 09:55:15;;;;;;;6.55;4.00;;;28.50;1.40;;;31.59;35.11;95479.94;647554;216;31736;-78
2022/04/14 09:58:07;;;;;;;6.68;4.25;;;29.30;1.40;;;32.21;35.43;95473.21;646683;216;31857;-77
2022/04/14 10:00:49;;;;;;;7.00;3.80;;;29.60;1.40;;;30.81;33.63;95484.35;646086;212;31571;-77
2022/04/14 10:03:34;;;;;;;6.55;4.50;;;26.20;1.40;;;27.59;37.85;95485.99;646515;212;42791;-77
2022/04/14 10:06:15;;;;;;;9.20;4.50;;;24.20;1.40;;;28.30;37.99;95482.08;647303;212;32188;-77
2022/04/14 10:08:57;;;;;;;8.02;4.10;;;25.90;1.40;;;29.98;34.88;95477.11;646799;216;31768;-77
2022/04/14 10:11:40;;;;;;;5.68;3.80;;;28.50;1.40;;;29.69;34.50;95483.13;619060;222;32780;-77
2022/04/14 10:14:24;;;;;;;6.90;4.25;;;26.60;1.40;;;29.10;37.76;95485.30;619174;222;32421;-77
2022/04/14 10:17:05;;;;;;;6.53;4.20;;;26.00;1.40;;;28.43;36.96;95482.19;621038;226;31950;-77
2022/04/14 10:19:45;;;;;;;6.47;4.05;;;26.40;1.40;;;31.19;34.43;95477.59;646198;216;31685;-78
2022/04/14 10:22:33;;;;;;;4.37;3.75;;;28.70;1.40;;;31.56;33.85;95476.08;644553;214;31554;-77
2022/04/14 10:25:21;;;;;;;5.80;3.65;;;29.80;1.40;;;31.63;33.18;95478.13;647614;216;31575;-77
2022/04/14 10:28:15;;;;;;;5.70;3.70;;;29.60;1.40;;;31.56;31.92;95475.21;619419;222;31998;-77
2022/04/14 10:30:57;;;;;;;6.85;4.03;;;28.20;1.40;;;30.34;34.00;95481.14;621102;222;31913;-77
2022/04/14 10:35:51;;;;;;;6.75;3.87;;;26.00;1.40;;;28.79;36.32;95473.09;650113;216;40237;-78
2022/04/14 10:38:34;;;;;;;5.60;4.00;;;25.00;1.40;;;31.69;32.80;95466.46;647229;216;31575;-77
2022/04/14 10:41:18;;;;;;;5.25;4.10;;;28.20;1.40;;;31.36;34.22;95469.00;620197;222;42668;-77
2022/04/14 10:44:03;;;;;;;6.87;4.15;;;27.30;1.40;;;32.03;33.51;95469.27;647263;216;31554;-77
2022/04/14 10:46:48;;;;;;;7.65;3.80;;;27.00;1.40;;;30.94;34.27;95476.66;618857;222;31916;-76
2022/04/14 10:49:32;;;;;;;6.07;4.32;;;25.80;1.40;;;29.42;34.78;95477.32;647685;212;31606;-78
2022/04/14 10:52:25;;;;;;;6.15;3.67;;;26.30;1.40;;;28.83;35.42;95480.64;646574;212;31768;-77
2022/04/14 10:55:08;;;;;;;5.55;3.45;;;24.50;1.40;;;26.22;39.58;95488.70;620349;225;32135;-76
2022/04/14 10:57:50;;;;;;;4.50;3.70;;;23.60;1.40;;;27.38;37.08;95473.35;647857;216;31546;-77
2022/04/14 11:00:36;;;;;;;4.20;2.62;;;25.60;1.40;;;29.44;35.27;95468.61;619882;226;32090;-77
2022/04/14 11:03:18;;;;;;;3.70;3.15;;;27.00;1.40;;;31.86;33.07;95457.74;648109;216;31546;-77
2022/04/14 11:06:06;;;;;;;5.20;3.50;;;29.60;1.40;;;33.65;30.68;95454.86;619669;222;32056;-81
2022/04/14 11:08:48;;;;;;;4.93;2.92;;;29.40;1.40;;;33.14;30.04;95459.70;609094;226;32077;-81
2022/04/14 11:11:31;;;;;;;4.97;3.40;;;29.00;1.40;;;33.49;30.23;95458.83;649557;212;31598;-78
2022/04/14 11:14:14;;;;;;;3.75;3.30;;;29.80;1.40;;;32.42;30.40;95461.59;649311;212;31514;-78
2022/04/14 11:16:56;;;;;;;5.53;3.70;;;28.00;1.40;;;31.93;31.23;95459.67;620071;226;32556;-77
2022/04/14 11:19:40;;;;;;;3.85;2.72;;;27.80;1.40;;;32.71;31.95;95456.89;648817;216;42201;-78
2022/04/14 11:22:28;;;;;;;4.65;3.28;;;28.40;1.40;;;33.28;29.61;95457.66;619857;222;31963;-78
2022/04/14 11:25:10;;;;;;;5.68;3.97;;;28.30;1.40;;;31.09;31.60;95469.70;648622;216;31620;-78
2022/04/14 11:28:18;;;;;;;6.50;4.62;;;27.30;1.40;;;30.56;32.41;95471.95;628026;220;31623;-77
2022/04/14 11:31:05;;;;;;;5.20;3.70;;;28.00;1.40;;;32.99;30.59;95457.84;645877;212;31611;-78
2022/04/14 11:35:53;;;;;;;6.65;4.10;;;30.20;1.40;;;33.31;29.62;95452.47;649646;216;42212;-78
2022/04/14 11:38:50;;;;;;;7.90;4.70;;;28.10;1.40;;;31.29;32.61;95462.17;647111;216;31578;-77
2022/04/14 11:41:40;;;;;;;7.55;4.00;;;27.80;1.40;;;32.19;31.46;95453.88;620034;226;32077;-77
2022/04/14 11:44:30;;;;;;;7.10;4.15;;;28.50;1.40;;;29.72;33.68;95458.47;619761;226;31929;-77
2022/04/14 11:48:35;;;;;;;5.50;3.70;;;26.80;1.40;;;30.34;33.61;95460.32;647161;212;42738;-77
2022/04/14 11:51:23;;;;;;;6.45;3.78;;;27.50;1.40;;;32.00;31.78;95452.79;649166;216;31565;-79
2022/04/14 11:54:11;;;;;;;5.10;3.75;;;28.50;1.40;;;32.20;31.21;95454.58;647584;216;31753;-77
2022/04/14 11:56:53;;;;;;;4.40;3.30;;;28.50;1.40;;;32.23;31.03;95454.55;647517;212;31681;-78
2022/04/14 11:59:41;;;;;;;5.45;3.87;;;27.40;1.40;;;31.21;32.22;95466.56;647090;212;31678;-77
2022/04/14 12:02:21;;;;;;;3.12;2.67;;;27.20;1.40;;;32.16;30.68;95458.72;619859;222;31946;-77
2022/04/14 12:05:08;;;;;;;5.03;3.50;;;28.50;1.40;;;33.20;29.64;95460.52;646645;216;31972;-77
2022/04/14 12:07:49;;;;;;;3.60;2.60;;;28.60;1.40;;;33.28;29.38;95455.46;640025;216;31720;-77
2022/04/14 12:10:31;;;;;;;3.92;3.00;;;28.50;1.40;;;33.27;28.39;95451.33;619572;226;31989;-77
2022/04/14 12:13:17;;;;;;;3.85;2.53;;;28.10;1.40;;;31.63;30.04;95463.47;619603;222;32063;-77